Jarl — SFB6983 — position and weather

sailwx.info

Track history (hours):
 
Tides and Currents Weather Stations Pressure Air Temp Water Temp Dewpoint Dewpoint Depression Visibility Wind Speed Wind Dir Waves Ship Positions

Jarl

Last reported at 2017-Apr-28 11:25 UTC. Time now 2017-Apr-28 18:08 UTC.
Position N 59°21' E 018°08'.

Length 13 m.

Type: Port tender. MMSI: 265671980.

Date/timePositionNaut miles runAvg speedWind from/ knotsBaromVisibWave heightAir tempDewpointWater temp
2017-Apr-28 11:25N 59°21' E 018°08'2 3.9
2017-Apr-28 10:59N 59°22' E 018°06'1 2.1
2017-Apr-28 10:26N 59°23' E 018°05'0 0.0
2017-Apr-28 09:59N 59°23' E 018°05'0 0.0
2017-Apr-28 09:26N 59°23' E 018°05'0 0.0
2017-Apr-28 08:50N 59°23' E 018°05'0 0.0
2017-Apr-28 08:26N 59°23' E 018°05'0 0.0
2017-Apr-28 07:59N 59°23' E 018°05'0 0.0
2017-Apr-28 07:29N 59°23' E 018°05'0 0.0
2017-Apr-28 06:56N 59°23' E 018°05'0 0.0
2017-Apr-28 06:26N 59°23' E 018°05'0 0.1
2017-Apr-28 05:59N 59°23' E 018°05'2 3.9
2017-Apr-28 05:29N 59°21' E 018°07'1 1.7
2017-Apr-28 04:58N 59°21' E 018°08'0 0.0
2017-Apr-27 06:46N 59°21' E 018°08'2 5.6
2017-Apr-27 06:30N 59°19' E 018°09'2 3.7
2017-Apr-27 06:01N 59°19' E 018°06'0 0.0
2017-Apr-27 05:31N 59°19' E 018°06'2 3.6
2017-Apr-27 05:00N 59°21' E 018°09'0 0.0
2017-Apr-26 10:48N 59°21' E 018°08'0 0.0
2017-Apr-26 10:25N 59°21' E 018°08'0 0.0
2017-Apr-26 09:58N 59°21' E 018°08'0 0.0
2017-Apr-26 09:25N 59°21' E 018°08'0 0.0
2017-Apr-26 08:58N 59°21' E 018°08'0 0.0
2017-Apr-26 08:30N 59°21' E 018°08'0 0.0
2017-Apr-26 08:00N 59°21' E 018°08'0 0.5
2017-Apr-26 07:28N 59°21' E 018°07'0 0.0
2017-Apr-26 06:56N 59°21' E 018°07'0 0.0
2017-Apr-26 06:28N 59°21' E 018°07'0 0.0
2017-Apr-26 05:58N 59°21' E 018°07'0 0.6
2017-Apr-26 05:29N 59°21' E 018°08'0 0.0
2017-Apr-26 04:59N 59°21' E 018°08'0 0.0
2017-Apr-25 09:46N 59°21' E 018°08'0 1.3
2017-Apr-25 09:30N 59°21' E 018°08'1 2.9
2017-Apr-25 09:00N 59°19' E 018°09'2 3.9
2017-Apr-25 08:30N 59°18' E 018°05'1 2.1
2017-Apr-25 07:59N 59°18' E 018°03'2 3.7
2017-Apr-25 07:30N 59°19' E 018°00'2 3.7
2017-Apr-25 06:59N 59°18' E 018°03'2 5.0
2017-Apr-25 06:30N 59°19' E 018°08'1 2.5
2017-Apr-25 05:58N 59°21' E 018°08'0 0.2
2017-Apr-25 05:30N 59°21' E 018°08'0 0.0
2017-Apr-24 12:23N 59°21' E 018°08'0 0.1
2017-Apr-24 12:00N 59°21' E 018°08'0 0.0
2017-Apr-24 11:30N 59°21' E 018°08'0 0.3
2017-Apr-24 11:00N 59°21' E 018°08'2 3.1
2017-Apr-24 10:30N 59°19' E 018°08'2 3.9
2017-Apr-24 10:00N 59°18' E 018°04'2 4.4
2017-Apr-24 09:30N 59°19' E 018°00'0 0.4
2017-Apr-24 08:36N 59°19' E 017°60'0 0.1
2017-Apr-24 08:27N 59°19' E 017°60'0 0.0
2017-Apr-24 07:57N 59°19' E 017°60'0 0.0
2017-Apr-24 07:24N 59°19' E 017°60'0 0.0
2017-Apr-24 06:54N 59°19' E 017°60'0 0.1
2017-Apr-24 06:30N 59°19' E 017°60'3 4.8
2017-Apr-24 05:58N 59°18' E 018°04'2 5.1
2017-Apr-24 05:30N 59°19' E 018°09'1 2.7
2017-Apr-24 04:58N 59°21' E 018°08'  
2017-Apr-21 10:34N 59°21' E 018°08'0 1.1
2017-Apr-21 10:30N 59°21' E 018°08'2 4.7
2017-Apr-21 10:00N 59°18' E 018°06'3 5.4
2017-Apr-21 09:30N 59°19' E 018°01'1 1.0
2017-Apr-21 08:58N 59°19' E 017°60'0 0.1
2017-Apr-21 08:30N 59°19' E 017°60'0 0.1
2017-Apr-21 07:44N 59°19' E 017°60'0 0.1
2017-Apr-21 07:26N 59°19' E 017°60'0 0.0
2017-Apr-21 06:56N 59°19' E 017°60'0 0.0
2017-Apr-21 06:23N 59°19' E 017°60'2 5.0
2017-Apr-21 05:56N 59°18' E 018°04'2 4.4
2017-Apr-21 05:30N 59°19' E 018°07'2 3.1
2017-Apr-21 04:59N 59°21' E 018°08'0 0.0
2017-Apr-20 13:39N 59°21' E 018°08'1 5.8
2017-Apr-20 13:30N 59°20' E 018°09'3 5.7
2017-Apr-20 12:59N 59°18' E 018°05'3 5.2
2017-Apr-20 12:30N 59°19' E 018°00'0 0.4
2017-Apr-20 11:59N 59°19' E 018°00'0 0.0
2017-Apr-20 11:29N 59°19' E 018°00'0 0.2
2017-Apr-20 10:59N 59°19' E 017°60'0 0.0
2017-Apr-20 10:23N 59°19' E 017°60'0 0.0
2017-Apr-20 09:56N 59°19' E 017°60'0 0.1
2017-Apr-20 08:08N 59°19' E 017°60'0 0.0
2017-Apr-20 07:56N 59°19' E 017°60'1 1.8
2017-Apr-20 07:30N 59°19' E 018°01'1 1.6
2017-Apr-20 06:59N 59°19' E 018°03'1 2.6
2017-Apr-20 06:27N 59°18' E 018°05'3 5.4
2017-Apr-20 05:57N 59°20' E 018°09'1 1.5
2017-Apr-20 05:28N 59°21' E 018°08'0 0.1
2017-Apr-20 04:59N 59°21' E 018°08'0 0.1
2017-Apr-20 04:30N 59°21' E 018°08'0 0.0
2017-Apr-20 04:00N 59°21' E 018°08'0 0.0
2017-Apr-20 03:31N 59°21' E 018°08'0 0.0
2017-Apr-20 03:01N 59°21' E 018°08'0 0.0
2017-Apr-20 02:31N 59°21' E 018°08'0 0.0
2017-Apr-20 02:01N 59°21' E 018°08'0 0.0
2017-Apr-20 01:31N 59°21' E 018°08'0 0.0
2017-Apr-20 01:01N 59°21' E 018°08'0 0.0
2017-Apr-20 00:30N 59°21' E 018°08'0 0.0
2017-Apr-20 00:01N 59°21' E 018°08'0 0.0
2017-Apr-19 23:30N 59°21' E 018°08'0 0.0
2017-Apr-19 23:00N 59°21' E 018°08'0 0.0
2017-Apr-19 22:30N 59°21' E 018°08'0 0.0
2017-Apr-19 22:01N 59°21' E 018°08'0 0.0
2017-Apr-19 21:28N 59°21' E 018°08'0 0.0
2017-Apr-19 21:01N 59°21' E 018°08'0 0.0
2017-Apr-19 20:31N 59°21' E 018°08'0 0.0
2017-Apr-19 20:01N 59°21' E 018°08'0 0.0
2017-Apr-19 19:31N 59°21' E 018°08'0 0.0
2017-Apr-19 19:01N 59°21' E 018°08'0 0.0
2017-Apr-19 18:31N 59°21' E 018°08'0 0.0
2017-Apr-19 15:16N 59°21' E 018°08'0 0.0
2017-Apr-19 14:58N 59°21' E 018°08'0 0.0
2017-Apr-19 14:28N 59°21' E 018°08'0 0.0
2017-Apr-19 13:25N 59°21' E 018°08'0 0.0
2017-Apr-19 12:58N 59°21' E 018°08'2 3.2
2017-Apr-19 12:30N 59°19' E 018°09'3 5.5
2017-Apr-19 12:00N 59°18' E 018°04'1 0.9
2017-Apr-19 11:20N 59°19' E 018°03'0 0.0
2017-Apr-19 10:59N 59°19' E 018°03'0 0.0
2017-Apr-19 10:26N 59°19' E 018°03'0 0.0
2017-Apr-19 09:56N 59°19' E 018°03'0 0.0
2017-Apr-19 09:29N 59°19' E 018°03'0 0.0
2017-Apr-19 08:53N 59°19' E 018°03'0 0.0
2017-Apr-19 08:29N 59°19' E 018°03'0 0.0
2017-Apr-19 07:56N 59°19' E 018°03'0 0.0
2017-Apr-19 07:26N 59°19' E 018°03'0 0.0
2017-Apr-19 06:50N 59°19' E 018°03'0 0.0
2017-Apr-19 06:26N 59°19' E 018°03'0 0.1
2017-Apr-19 05:56N 59°19' E 018°03'2 4.0
2017-Apr-19 05:30N 59°19' E 018°06'2 4.1
2017-Apr-19 05:00N 59°21' E 018°08'0 0.0
2017-Apr-18 13:36N 59°21' E 018°08'0 3.2
2017-Apr-18 13:30N 59°21' E 018°08'3 4.9
2017-Apr-18 12:59N 59°18' E 018°06'2 3.1
2017-Apr-18 12:29N 59°19' E 018°03'0 0.1
2017-Apr-18 11:59N 59°19' E 018°03'0 0.0
2017-Apr-18 11:29N 59°19' E 018°03'  
Track history (hours):
 
Tides and Currents Weather Stations Pressure Air Temp Water Temp Dewpoint Dewpoint Depression Visibility Wind Speed Wind Dir Waves Ship Positions

Jarl

Last reported at 2017-Apr-28 11:25 UTC. Time now 2017-Apr-28 18:08 UTC.
Position N 59°21' E 018°08'.

Length 13 m.

Type: Port tender. MMSI: 265671980.

Date/timePositionNaut miles runAvg speedWind from/ knotsBaromVisibWave heightAir tempDewpointWater temp
2017-Apr-28 11:25N 59°21' E 018°08'2 3.9
2017-Apr-28 10:59N 59°22' E 018°06'1 2.1
2017-Apr-28 10:26N 59°23' E 018°05'0 0.0
2017-Apr-28 09:59N 59°23' E 018°05'0 0.0
2017-Apr-28 09:26N 59°23' E 018°05'0 0.0
2017-Apr-28 08:50N 59°23' E 018°05'0 0.0
2017-Apr-28 08:26N 59°23' E 018°05'0 0.0
2017-Apr-28 07:59N 59°23' E 018°05'0 0.0
2017-Apr-28 07:29N 59°23' E 018°05'0 0.0
2017-Apr-28 06:56N 59°23' E 018°05'0 0.0
2017-Apr-28 06:26N 59°23' E 018°05'0 0.1
2017-Apr-28 05:59N 59°23' E 018°05'2 3.9
2017-Apr-28 05:29N 59°21' E 018°07'1 1.7
2017-Apr-28 04:58N 59°21' E 018°08'0 0.0
2017-Apr-27 06:46N 59°21' E 018°08'2 5.6
2017-Apr-27 06:30N 59°19' E 018°09'2 3.7
2017-Apr-27 06:01N 59°19' E 018°06'0 0.0
2017-Apr-27 05:31N 59°19' E 018°06'2 3.6
2017-Apr-27 05:00N 59°21' E 018°09'0 0.0
2017-Apr-26 10:48N 59°21' E 018°08'0 0.0
2017-Apr-26 10:25N 59°21' E 018°08'0 0.0
2017-Apr-26 09:58N 59°21' E 018°08'0 0.0
2017-Apr-26 09:25N 59°21' E 018°08'0 0.0
2017-Apr-26 08:58N 59°21' E 018°08'0 0.0
2017-Apr-26 08:30N 59°21' E 018°08'0 0.0
2017-Apr-26 08:00N 59°21' E 018°08'0 0.5
2017-Apr-26 07:28N 59°21' E 018°07'0 0.0
2017-Apr-26 06:56N 59°21' E 018°07'0 0.0
2017-Apr-26 06:28N 59°21' E 018°07'0 0.0
2017-Apr-26 05:58N 59°21' E 018°07'0 0.6
2017-Apr-26 05:29N 59°21' E 018°08'0 0.0
2017-Apr-26 04:59N 59°21' E 018°08'0 0.0
2017-Apr-25 09:46N 59°21' E 018°08'0 1.3
2017-Apr-25 09:30N 59°21' E 018°08'1 2.9
2017-Apr-25 09:00N 59°19' E 018°09'2 3.9
2017-Apr-25 08:30N 59°18' E 018°05'1 2.1
2017-Apr-25 07:59N 59°18' E 018°03'2 3.7
2017-Apr-25 07:30N 59°19' E 018°00'2 3.7
2017-Apr-25 06:59N 59°18' E 018°03'2 5.0
2017-Apr-25 06:30N 59°19' E 018°08'1 2.5
2017-Apr-25 05:58N 59°21' E 018°08'0 0.2
2017-Apr-25 05:30N 59°21' E 018°08'0 0.0
2017-Apr-24 12:23N 59°21' E 018°08'0 0.1
2017-Apr-24 12:00N 59°21' E 018°08'0 0.0
2017-Apr-24 11:30N 59°21' E 018°08'0 0.3
2017-Apr-24 11:00N 59°21' E 018°08'2 3.1
2017-Apr-24 10:30N 59°19' E 018°08'2 3.9
2017-Apr-24 10:00N 59°18' E 018°04'2 4.4
2017-Apr-24 09:30N 59°19' E 018°00'0 0.4
2017-Apr-24 08:36N 59°19' E 017°60'0 0.1
2017-Apr-24 08:27N 59°19' E 017°60'0 0.0
2017-Apr-24 07:57N 59°19' E 017°60'0 0.0
2017-Apr-24 07:24N 59°19' E 017°60'0 0.0
2017-Apr-24 06:54N 59°19' E 017°60'0 0.1
2017-Apr-24 06:30N 59°19' E 017°60'3 4.8
2017-Apr-24 05:58N 59°18' E 018°04'2 5.1
2017-Apr-24 05:30N 59°19' E 018°09'1 2.7
2017-Apr-24 04:58N 59°21' E 018°08'  
2017-Apr-21 10:34N 59°21' E 018°08'0 1.1
2017-Apr-21 10:30N 59°21' E 018°08'2 4.7
2017-Apr-21 10:00N 59°18' E 018°06'3 5.4
2017-Apr-21 09:30N 59°19' E 018°01'1 1.0
2017-Apr-21 08:58N 59°19' E 017°60'0 0.1
2017-Apr-21 08:30N 59°19' E 017°60'0 0.1
2017-Apr-21 07:44N 59°19' E 017°60'0 0.1
2017-Apr-21 07:26N 59°19' E 017°60'0 0.0
2017-Apr-21 06:56N 59°19' E 017°60'0 0.0
2017-Apr-21 06:23N 59°19' E 017°60'2 5.0
2017-Apr-21 05:56N 59°18' E 018°04'2 4.4
2017-Apr-21 05:30N 59°19' E 018°07'2 3.1
2017-Apr-21 04:59N 59°21' E 018°08'0 0.0
2017-Apr-20 13:39N 59°21' E 018°08'1 5.8
2017-Apr-20 13:30N 59°20' E 018°09'3 5.7
2017-Apr-20 12:59N 59°18' E 018°05'3 5.2
2017-Apr-20 12:30N 59°19' E 018°00'0 0.4
2017-Apr-20 11:59N 59°19' E 018°00'0 0.0
2017-Apr-20 11:29N 59°19' E 018°00'0 0.2
2017-Apr-20 10:59N 59°19' E 017°60'0 0.0
2017-Apr-20 10:23N 59°19' E 017°60'0 0.0
2017-Apr-20 09:56N 59°19' E 017°60'0 0.1
2017-Apr-20 08:08N 59°19' E 017°60'0 0.0
2017-Apr-20 07:56N 59°19' E 017°60'1 1.8
2017-Apr-20 07:30N 59°19' E 018°01'1 1.6
2017-Apr-20 06:59N 59°19' E 018°03'1 2.6
2017-Apr-20 06:27N 59°18' E 018°05'3 5.4
2017-Apr-20 05:57N 59°20' E 018°09'1 1.5
2017-Apr-20 05:28N 59°21' E 018°08'0 0.1
2017-Apr-20 04:59N 59°21' E 018°08'0 0.1
2017-Apr-20 04:30N 59°21' E 018°08'0 0.0
2017-Apr-20 04:00N 59°21' E 018°08'0 0.0
2017-Apr-20 03:31N 59°21' E 018°08'0 0.0
2017-Apr-20 03:01N 59°21' E 018°08'0 0.0
2017-Apr-20 02:31N 59°21' E 018°08'0 0.0
2017-Apr-20 02:01N 59°21' E 018°08'0 0.0
2017-Apr-20 01:31N 59°21' E 018°08'0 0.0
2017-Apr-20 01:01N 59°21' E 018°08'0 0.0
2017-Apr-20 00:30N 59°21' E 018°08'0 0.0
2017-Apr-20 00:01N 59°21' E 018°08'0 0.0
2017-Apr-19 23:30N 59°21' E 018°08'0 0.0
2017-Apr-19 23:00N 59°21' E 018°08'0 0.0
2017-Apr-19 22:30N 59°21' E 018°08'0 0.0
2017-Apr-19 22:01N 59°21' E 018°08'0 0.0
2017-Apr-19 21:28N 59°21' E 018°08'0 0.0
2017-Apr-19 21:01N 59°21' E 018°08'0 0.0
2017-Apr-19 20:31N 59°21' E 018°08'0 0.0
2017-Apr-19 20:01N 59°21' E 018°08'0 0.0
2017-Apr-19 19:31N 59°21' E 018°08'0 0.0
2017-Apr-19 19:01N 59°21' E 018°08'0 0.0
2017-Apr-19 18:31N 59°21' E 018°08'0 0.0
2017-Apr-19 15:16N 59°21' E 018°08'0 0.0
2017-Apr-19 14:58N 59°21' E 018°08'0 0.0
2017-Apr-19 14:28N 59°21' E 018°08'0 0.0
2017-Apr-19 13:25N 59°21' E 018°08'0 0.0
2017-Apr-19 12:58N 59°21' E 018°08'2 3.2
2017-Apr-19 12:30N 59°19' E 018°09'3 5.5
2017-Apr-19 12:00N 59°18' E 018°04'1 0.9
2017-Apr-19 11:20N 59°19' E 018°03'0 0.0
2017-Apr-19 10:59N 59°19' E 018°03'0 0.0
2017-Apr-19 10:26N 59°19' E 018°03'0 0.0
2017-Apr-19 09:56N 59°19' E 018°03'0 0.0
2017-Apr-19 09:29N 59°19' E 018°03'0 0.0
2017-Apr-19 08:53N 59°19' E 018°03'0 0.0
2017-Apr-19 08:29N 59°19' E 018°03'0 0.0
2017-Apr-19 07:56N 59°19' E 018°03'0 0.0
2017-Apr-19 07:26N 59°19' E 018°03'0 0.0
2017-Apr-19 06:50N 59°19' E 018°03'0 0.0
2017-Apr-19 06:26N 59°19' E 018°03'0 0.1
2017-Apr-19 05:56N 59°19' E 018°03'2 4.0
2017-Apr-19 05:30N 59°19' E 018°06'2 4.1
2017-Apr-19 05:00N 59°21' E 018°08'0 0.0
2017-Apr-18 13:36N 59°21' E 018°08'0 3.2
2017-Apr-18 13:30N 59°21' E 018°08'3 4.9
2017-Apr-18 12:59N 59°18' E 018°06'2 3.1
2017-Apr-18 12:29N 59°19' E 018°03'0 0.1
2017-Apr-18 11:59N 59°19' E 018°03'0 0.0
2017-Apr-18 11:29N 59°19' E 018°03'  

Dump ship's entire track history